Date,TemperatureHighF,TemperatureAvgF,TemperatureLowF,DewpointHighF,DewpointAvgF,DewpointLowF,HumidityHigh,HumidityAvg,HumidityLow,PressureMaxIn,PressureMinIn,WindSpeedMaxMPH,WindSpeedAvgMPH,GustSpeedMaxMPH,PrecipitationSumIn
2013-1-1,58.6,44.1,36.6,42.0,37.7,34.0,97,80,48,30.25,30.18,4,0,0,0.00
2013-1-2,61.8,46.0,36.2,39.0,35.1,32.0,92,69,39,30.22,30.12,3,0,0,0.00
2013-1-3,61.1,44.2,34.1,44.0,37.4,32.0,97,79,49,30.25,30.14,2,0,0,0.00
2013-1-4,64.0,47.4,39.7,41.0,38.1,36.0,91,73,42,30.27,30.16,4,0,0,0.00
2013-1-5,51.6,45.8,38.1,49.0,43.9,37.0,97,93,84,30.23,30.04,2,0,0,0.61
2013-1-6,54.2,45.9,39.8,50.0,44.5,39.0,98,94,82,30.16,30.04,3,0,0,0.16
2013-1-7,61.4,47.0,38.5,54.0,44.6,38.0,98,92,71,30.24,30.14,4,0,0,0.00
2013-1-8,64.3,48.5,40.8,54.0,44.8,40.0,98,89,61,30.22,30.10,3,0,0,0.00
2013-1-9,56.1,46.7,41.6,51.0,43.1,37.0,98,87,70,30.12,29.95,6,1,0,0.01
2013-1-10,57.7,47.0,40.6,40.0,36.4,31.0,89,68,50,30.16,30.05,4,1,0,0.00
2013-1-11,60.3,48.7,42.9,43.0,37.9,31.0,81,67,50,30.23,30.09,3,1,0,0.00
2013-1-12,56.2,42.8,31.9,38.0,33.3,22.0,95,73,28,30.23,30.12,4,0,0,0.00
2013-1-13,57.0,39.7,28.1,35.0,29.3,20.0,94,70,35,30.25,30.16,3,0,0,0.00
2013-1-14,56.3,41.2,31.2,31.0,26.6,20.0,86,60,29,30.38,30.20,4,0,0,0.00
2013-1-15,57.8,41.4,32.5,40.0,32.3,30.0,97,75,35,30.46,30.37,3,0,0,0.00
2013-1-16,61.5,48.4,36.0,39.0,34.1,30.0,87,60,35,30.41,30.23,3,1,0,0.00
2013-1-17,68.8,53.3,45.5,40.0,34.9,32.0,67,52,31,30.25,30.13,6,1,0,0.00
2013-1-18,70.2,53.9,46.1,40.0,36.3,32.0,68,54,29,30.21,30.11,4,1,0,0.00
2013-1-19,68.5,51.7,43.0,40.0,34.7,31.0,68,54,32,30.23,30.14,6,0,0,0.00
2013-1-20,71.4,53.2,42.0,39.0,34.2,31.0,69,51,26,30.20,30.11,3,0,0,0.00
2013-1-21,70.1,53.5,39.8,42.0,36.6,30.0,75,55,31,30.16,30.06,4,1,0,0.00
2013-1-22,65.8,53.8,47.8,45.0,41.1,37.0,85,64,41,30.09,29.97,3,0,0,0.00
2013-1-23,54.6,50.3,48.3,53.0,47.5,44.0,97,90,83,30.07,29.93,1,0,0,0.40
2013-1-24,61.1,53.5,49.4,56.0,51.5,49.0,98,93,79,30.16,30.05,2,0,0,0.00
2013-1-25,71.5,57.6,50.3,58.0,53.2,49.0,98,86,61,30.17,30.01,3,0,0,0.00
2013-1-26,64.9,52.8,45.7,51.0,44.4,38.0,97,76,46,30.05,29.96,5,1,0,0.00
2013-1-27,61.8,50.4,41.6,43.0,38.5,35.0,81,65,46,30.14,30.04,5,1,0,0.00
2013-1-28,64.6,52.2,46.0,46.0,40.7,35.0,80,66,48,30.25,30.13,4,1,0,0.00
2013-1-29,65.6,50.4,41.7,48.0,42.4,38.0,94,76,50,30.32,30.23,3,0,0,0.00
2013-1-30,71.0,51.3,40.9,52.0,44.1,40.0,98,80,42,30.32,30.23,3,0,0,0.00
2013-1-31,70.5,52.2,41.5,50.0,45.3,40.0,97,80,45,30.26,30.15,4,0,0,0.00
2013-2-1,70.9,54.3,44.6,50.0,45.6,42.0,91,75,44,30.20,30.09,6,1,0,0.00
2013-2-2,67.8,50.6,42.5,53.0,46.1,41.0,97,86,56,30.27,30.19,2,0,0,0.00
2013-2-3,64.7,49.1,39.9,51.0,44.3,39.0,98,85,60,30.22,30.11,3,0,0,0.00
2013-2-4,62.7,47.5,40.6,54.0,44.9,40.0,97,91,69,30.15,30.05,2,0,0,0.01
2013-2-5,63.6,50.5,41.6,51.0,44.7,39.0,97,82,58,30.13,30.04,4,0,0,0.00
2013-2-6,65.7,47.9,37.6,51.0,41.4,36.0,97,80,48,30.18,30.09,4,1,0,0.00
2013-2-7,60.2,48.6,37.9,51.0,43.9,37.0,96,85,54,30.14,29.97,7,1,0,0.23
2013-2-8,62.8,47.2,36.8,47.0,39.5,32.0,98,77,43,29.99,29.91,6,0,0,0.10
2013-2-9,63.2,47.2,35.3,40.0,34.9,30.0,89,66,30,30.06,29.97,3,0,0,0.00
2013-2-10,65.3,45.9,34.0,46.0,38.7,32.0,97,79,42,30.10,30.00,4,0,0,0.00
2013-2-11,69.2,51.8,38.0,48.0,37.5,30.0,93,63,29,30.20,30.05,5,0,0,0.00
2013-2-12,67.6,48.6,36.9,52.0,40.8,36.0,98,78,39,30.34,30.20,3,0,0,0.00
2013-2-13,67.8,47.9,37.1,51.0,42.0,36.0,98,82,49,30.32,30.19,2,0,0,0.00
2013-2-14,76.7,53.9,38.8,51.0,44.0,37.0,98,75,33,30.22,30.13,4,0,0,0.00
2013-2-15,77.7,57.8,45.3,47.0,43.4,40.0,93,63,29,30.24,30.18,4,1,0,0.00
2013-2-16,77.1,57.0,44.5,51.0,45.7,42.0,91,70,35,30.21,30.02,4,0,0,0.00
2013-2-17,68.7,50.6,38.9,51.0,43.5,38.0,97,80,46,30.04,29.94,4,0,0,0.00
2013-2-18,59.4,46.3,36.7,45.0,39.9,36.0,97,80,55,30.01,29.94,4,1,0,0.00
2013-2-19,51.1,45.2,40.5,47.0,40.2,34.0,94,83,65,29.95,29.72,6,1,0,0.56
2013-2-20,66.7,47.4,32.9,43.0,37.5,31.0,96,73,38,30.03,29.82,5,0,0,0.00
2013-2-21,67.9,51.1,39.9,41.0,37.7,35.0,91,64,32,30.15,30.02,4,1,0,0.00
2013-2-22,68.3,50.9,36.8,48.0,41.8,36.0,97,75,33,30.23,30.15,6,1,0,0.00
2013-2-23,65.4,53.8,45.2,47.0,38.7,30.0,92,59,36,30.22,30.13,10,1,0,0.00
2013-2-24,69.4,53.1,40.1,44.0,32.8,24.0,89,50,26,30.22,30.14,4,1,0,0.00
2013-2-25,72.1,50.3,37.5,50.0,41.9,36.0,97,77,42,30.25,30.14,3,0,0,0.00
2013-2-26,72.8,51.1,35.7,47.0,38.4,30.0,96,69,23,30.20,30.11,3,0,0,0.00
2013-2-27,71.5,52.4,37.5,50.0,43.2,36.0,96,74,41,30.34,30.18,4,0,0,0.00
2013-2-28,75.1,56.5,45.7,56.0,49.5,44.0,96,80,49,30.42,30.34,4,0,0,0.00
2013-3-1,79.3,57.2,43.9,58.0,48.6,43.0,98,77,38,30.41,30.21,5,0,0,0.00
2013-3-2,73.1,57.4,47.8,56.0,50.4,46.0,96,79,52,30.21,30.04,3,0,0,0.00
2013-3-3,71.7,55.2,42.3,52.0,47.7,41.0,94,78,43,30.07,30.00,4,1,0,0.00
2013-3-4,62.8,48.9,37.9,49.0,43.9,36.0,96,84,58,30.12,30.03,6,0,0,0.00
2013-3-5,53.7,46.3,36.2,47.0,42.2,35.0,97,86,72,30.05,29.81,11,2,0,0.18
2013-3-6,59.0,50.2,39.0,50.0,44.7,38.0,96,82,63,30.05,29.81,11,2,0,0.20
2013-3-7,57.5,47.5,38.7,47.0,43.5,37.0,97,87,59,29.97,29.84,3,0,0,0.03
2013-3-8,67.3,50.9,39.4,50.0,42.2,38.0,97,76,41,30.02,29.82,4,1,0,0.01
2013-3-9,76.1,52.9,38.0,49.0,42.3,37.0,97,72,30,30.27,30.02,4,0,0,0.00
2013-3-10,71.0,52.8,39.6,51.0,43.1,38.0,97,74,36,30.33,30.22,6,1,0,0.00
2013-3-11,76.8,56.1,38.8,51.0,44.3,37.0,97,70,33,30.23,30.07,6,0,0,0.00
2013-3-12,79.7,56.0,41.0,56.0,47.8,40.0,97,78,35,30.14,30.04,4,0,0,0.00
2013-3-13,83.6,61.0,41.9,58.0,50.6,41.0,97,73,37,30.13,30.03,6,0,0,0.00
2013-3-14,72.0,56.0,45.0,57.0,49.8,44.0,97,81,52,30.14,30.06,3,0,0,0.00
2013-3-15,76.3,54.9,42.2,57.0,48.1,41.0,97,80,50,30.11,30.01,3,0,0,0.00
2013-3-16,81.1,58.6,43.5,55.0,45.2,38.0,97,68,23,30.09,29.98,4,1,0,0.00
2013-3-17,72.3,58.8,44.5,50.0,44.1,38.0,88,61,38,30.12,30.01,6,1,0,0.00
2013-3-18,69.9,52.3,40.2,52.0,44.8,39.0,97,78,49,30.09,30.01,2,0,0,0.00
2013-3-19,66.2,52.3,43.4,52.0,46.5,37.0,96,82,49,30.11,30.03,2,0,0,0.06
2013-3-20,60.8,52.3,46.5,59.0,50.8,45.0,97,94,85,30.12,30.04,3,0,0,0.39
2013-3-21,70.8,52.7,39.3,53.0,45.1,38.0,98,79,40,30.10,29.98,5,0,0,0.01
2013-3-22,74.5,50.7,36.9,44.0,38.5,26.0,97,71,18,30.09,30.00,3,0,0,0.00
2013-3-23,71.9,52.9,38.4,45.0,39.2,33.0,93,67,24,30.12,30.02,3,0,0,0.00
2013-3-24,72.6,53.2,39.6,52.0,44.8,38.0,97,77,40,30.07,29.94,4,0,0,0.00
2013-3-25,66.9,50.9,37.8,51.0,44.1,37.0,97,79,53,29.99,29.91,4,1,0,0.00
2013-3-26,67.7,52.9,40.9,52.0,46.2,39.0,97,80,57,29.98,29.91,3,0,0,0.00
2013-3-27,58.2,51.9,45.6,54.0,49.9,44.0,97,93,83,29.99,29.92,4,0,0,0.01
2013-3-28,72.2,57.5,49.1,58.0,53.0,47.0,96,86,59,30.06,29.98,5,0,0,0.02
2013-3-29,80.8,58.8,45.4,58.0,50.6,44.0,100,78,43,30.06,29.98,3,0,0,0.00
2013-3-30,71.1,56.8,51.2,55.0,51.7,49.0,95,84,52,30.06,29.96,5,1,0,0.27
2013-3-31,63.3,56.4,53.1,59.0,53.9,52.0,98,91,72,30.04,29.97,5,1,0,0.14
2013-4-1,71.6,57.4,46.2,59.0,52.6,45.0,97,85,53,30.13,30.02,5,0,0,0.28
2013-4-2,74.6,55.6,43.2,59.0,50.0,42.0,98,83,57,30.16,30.06,3,0,0,0.01
2013-4-3,81.6,57.6,44.4,58.0,50.2,43.0,97,79,41,30.11,29.97,4,0,0,0.00
2013-4-4,56.8,53.9,50.0,56.0,52.8,48.0,97,96,92,30.10,29.97,5,1,0,1.37
2013-4-5,64.3,53.4,48.7,53.0,51.1,47.0,97,92,66,30.15,30.09,2,0,0,0.02
2013-4-6,64.5,56.0,49.0,59.0,53.0,47.0,98,90,74,30.18,30.10,3,1,0,0.06
2013-4-7,69.1,57.0,49.7,57.0,51.3,47.0,97,83,58,30.15,29.82,7,1,0,0.32
2013-4-8,74.6,58.3,46.4,47.0,41.8,37.0,91,58,33,30.00,29.77,6,1,0,0.00
2013-4-9,83.2,66.4,52.2,49.0,41.4,35.0,58,42,25,30.07,30.00,4,1,0,0.00
2013-4-10,92.1,71.0,56.2,58.0,50.5,44.0,81,52,26,30.14,29.98,3,0,0,0.00
2013-4-11,80.7,64.9,47.8,56.0,49.5,39.0,91,61,38,30.01,29.81,5,0,0,0.00
2013-4-12,82.0,58.5,42.4,56.0,48.9,41.0,97,75,36,29.89,29.79,3,0,0,0.00
2013-4-13,77.3,59.7,43.8,54.0,47.2,41.0,97,68,36,29.88,29.79,4,1,0,0.00
2013-4-14,79.7,57.0,40.4,48.0,43.5,36.0,98,67,25,29.91,29.82,6,1,0,0.00
2013-4-15,66.7,52.9,41.9,47.0,40.0,34.0,94,65,39,29.93,29.83,9,1,0,0.00
2013-4-16,73.7,57.9,45.9,41.0,34.9,31.0,65,45,24,30.13,29.93,5,0,0,0.00
2013-4-17,76.2,60.3,47.2,40.0,35.3,31.0,74,42,21,30.24,30.13,3,0,0,0.00
2013-4-18,77.5,60.3,45.7,48.0,41.2,35.0,79,54,27,30.24,30.15,5,0,0,0.00
2013-4-19,81.7,62.2,43.6,56.0,46.7,41.0,95,61,29,30.21,30.02,5,1,0,0.00
2013-4-20,81.4,63.9,46.5,54.0,47.9,43.0,94,61,28,30.08,29.94,4,0,0,0.00
2013-4-21,85.2,63.9,45.1,56.0,49.2,44.0,97,65,29,30.01,29.89,5,0,0,0.00
2013-4-22,90.2,65.8,50.2,57.0,50.3,45.0,91,64,21,29.93,29.82,3,0,0,0.00
2013-4-23,80.7,59.2,46.1,52.0,44.2,29.0,92,64,17,29.91,29.83,4,0,0,0.00
2013-4-24,61.8,51.7,40.0,51.0,46.2,39.0,97,82,65,29.92,29.82,8,1,0,0.00
2013-4-25,64.6,55.7,44.4,52.0,49.3,43.0,93,80,61,30.11,29.92,4,0,0,0.00
2013-4-26,70.7,54.6,42.0,54.0,48.0,41.0,97,80,56,30.20,30.11,6,0,0,0.00
2013-4-27,73.9,55.4,40.7,56.0,48.3,39.0,97,79,54,30.21,30.05,5,0,0,0.00
2013-4-28,85.3,61.6,41.3,61.0,51.5,40.0,97,74,39,30.05,29.85,4,0,0,0.00
2013-4-29,89.8,68.2,50.6,61.0,53.7,48.0,97,67,25,29.87,29.73,3,0,0,0.00
2013-4-30,88.5,66.2,48.4,55.0,48.3,24.0,96,60,19,29.82,29.76,5,0,0,0.00
2013-5-1,84.1,69.1,51.5,52.0,37.4,24.0,82,36,13,30.05,29.81,5,1,0,0.00
2013-5-2,94.3,69.4,47.9,50.0,41.9,30.0,86,46,13,30.12,30.04,2,0,0,0.00
2013-5-3,89.0,67.2,49.1,53.0,46.0,38.0,79,51,21,30.05,29.77,3,0,0,0.00
2013-5-4,81.9,60.1,47.9,53.0,49.2,44.0,88,72,33,29.76,29.57,10,1,0,0.00
2013-5-5,62.3,57.1,53.9,53.0,51.0,49.0,86,80,71,29.79,29.60,11,2,0,0.00
2013-5-6,72.1,61.1,50.5,55.0,52.0,48.0,96,73,49,29.95,29.79,7,1,0,0.00
2013-5-7,70.5,61.3,50.3,57.0,53.7,48.0,93,77,59,30.02,29.93,4,1,0,0.00
2013-5-8,67.5,56.1,47.1,55.0,50.4,46.0,96,82,62,30.11,30.01,3,0,0,0.00
2013-5-9,75.6,57.8,45.8,57.0,50.2,45.0,97,78,50,30.14,30.06,4,0,0,0.00
2013-5-10,75.0,58.5,45.8,58.0,51.4,44.0,96,79,55,30.16,30.08,5,0,0,0.00
2013-5-11,79.4,60.8,49.4,60.0,52.8,48.0,95,77,48,30.12,30.02,3,0,0,0.00
2013-5-12,83.6,62.8,45.7,63.0,53.7,44.0,97,76,47,30.12,29.99,3,0,0,0.00
2013-5-13,84.5,63.1,45.9,62.0,53.8,45.0,97,75,46,30.05,29.91,3,0,0,0.00
2013-5-14,81.8,62.0,48.1,58.0,51.9,47.0,97,73,44,29.96,29.88,3,0,0,0.00
2013-5-15,76.6,59.5,44.0,54.0,48.9,43.0,97,72,41,30.01,29.95,4,0,0,0.00
2013-5-16,72.7,61.1,53.0,58.0,51.8,46.0,87,73,46,30.00,29.93,5,1,0,0.00
2013-5-17,76.4,58.6,45.8,54.0,47.3,42.0,94,69,38,30.05,29.94,3,0,0,0.00
2013-5-18,83.8,62.0,42.8,56.0,47.9,41.0,97,65,31,30.11,30.04,5,1,0,0.00
2013-5-19,85.7,66.4,47.4,55.0,49.6,44.0,94,59,31,30.10,29.94,5,0,0,0.00
2013-5-20,89.2,65.6,48.4,56.0,49.1,43.0,95,63,21,29.98,29.89,4,0,0,0.00
2013-5-21,78.3,60.9,47.9,53.0,45.5,36.0,92,61,31,29.96,29.88,5,0,0,0.00
2013-5-22,74.3,59.1,46.5,42.0,35.7,29.0,79,44,27,29.99,29.87,5,1,0,0.00
2013-5-23,77.3,57.1,41.8,50.0,42.8,39.0,91,63,32,29.98,29.89,5,0,0,0.00
2013-5-24,76.6,57.5,42.2,51.0,44.7,40.0,96,67,33,29.98,29.90,4,0,0,0.00
2013-5-25,76.5,58.1,42.6,53.0,46.9,41.0,96,70,41,30.01,29.93,4,1,0,0.00
2013-5-26,74.0,61.4,51.4,56.0,51.9,48.0,94,73,47,30.10,30.00,5,0,0,0.00
2013-5-27,66.2,57.1,49.1,57.0,52.4,46.0,95,85,65,30.09,29.97,0,0,0,0.09
2013-5-28,79.7,63.8,54.4,62.0,55.7,51.0,97,78,45,29.98,29.89,4,0,0,0.01
2013-5-29,80.4,64.4,52.2,58.0,53.2,48.0,87,69,40,29.94,29.86,4,0,0,0.00
2013-5-30,83.1,62.2,45.2,55.0,49.3,44.0,97,67,32,29.96,29.90,6,0,0,0.00
2013-5-31,96.0,67.1,46.3,58.0,51.3,44.0,96,63,23,29.99,29.86,3,0,0,0.00
2013-6-1,92.1,68.5,49.2,60.0,53.6,47.0,95,64,32,29.91,29.73,3,0,0,0.00
2013-6-2,80.6,62.4,49.7,57.0,51.9,48.0,96,72,35,29.76,29.64,3,0,0,0.00
2013-6-3,67.2,58.2,52.1,54.0,51.5,50.0,92,79,62,29.83,29.70,6,1,0,0.00
2013-6-4,66.5,57.2,51.5,55.0,51.7,49.0,91,82,67,29.94,29.82,6,0,0,0.00
2013-6-5,68.7,56.8,49.9,56.0,51.3,48.0,93,82,61,29.98,29.90,4,0,0,0.00
2013-6-6,72.1,58.5,51.1,56.0,52.1,49.0,93,81,57,29.93,29.83,4,0,0,0.00
2013-6-7,86.0,64.3,52.1,63.0,55.1,50.0,94,75,45,29.87,29.69,4,1,0,0.00
2013-6-8,77.4,62.4,53.8,59.0,54.5,52.0,92,77,51,29.80,29.69,12,1,0,0.00
2013-6-9,64.9,58.5,55.5,57.0,54.7,53.0,94,88,73,29.87,29.80,6,1,0,0.02
2013-6-10,64.5,57.7,53.5,56.0,53.8,51.0,95,87,73,29.93,29.79,6,1,0,0.04
2013-6-11,76.1,63.1,53.5,59.0,54.9,51.0,93,76,53,29.96,29.85,4,0,0,0.00
2013-6-12,85.6,63.8,45.5,56.0,50.3,44.0,97,67,24,29.96,29.88,4,0,0,0.00
2013-6-13,87.0,64.1,44.7,55.0,49.2,41.0,97,64,20,30.06,29.96,5,0,0,0.00
2013-6-14,83.3,65.2,49.2,58.0,49.9,47.0,95,64,29,29.97,29.79,3,0,0,0.00
2013-6-15,72.2,57.1,48.0,56.0,50.5,46.0,95,80,55,29.96,29.80,4,1,0,0.00
2013-6-16,88.9,63.6,44.9,59.0,50.7,44.0,97,69,28,30.05,29.95,4,0,0,0.00
2013-6-17,85.6,64.3,47.6,59.0,52.8,46.0,95,70,38,30.05,29.98,4,0,0,0.00
2013-6-18,77.0,62.6,49.8,53.0,49.0,45.0,95,65,38,29.99,29.92,7,1,0,0.00
2013-6-19,82.6,65.7,53.9,55.0,47.6,43.0,74,54,31,30.02,29.95,4,1,0,0.00
2013-6-20,86.5,65.3,47.6,55.0,48.2,44.0,93,59,24,29.98,29.89,4,0,0,0.00
2013-6-21,87.5,64.7,47.3,58.0,50.9,45.0,96,66,28,29.94,29.87,3,0,0,0.00
2013-6-22,89.7,66.8,48.2,57.0,52.4,46.0,98,65,31,29.90,29.80,5,0,0,0.00
2013-6-23,66.0,59.2,54.8,60.0,55.7,52.0,95,88,79,29.85,29.79,3,0,0,0.00
2013-6-24,62.1,58.0,54.8,59.0,55.8,53.0,96,92,84,29.89,29.76,2,0,0,0.14
2013-6-25,61.4,59.9,57.7,61.0,59.0,57.0,97,96,96,29.97,29.86,4,1,0,2.23
2013-6-26,81.9,68.2,59.5,68.0,63.0,59.0,98,85,59,30.02,29.94,5,0,0,0.01
2013-6-27,93.5,70.8,56.1,68.0,61.5,55.0,98,76,38,30.05,29.96,3,0,0,0.00
2013-6-28,90.2,72.2,56.5,67.0,60.9,55.0,98,71,43,29.99,29.85,5,1,0,0.00
2013-6-29,91.0,72.4,55.5,66.0,60.0,54.0,96,69,38,29.88,29.75,3,0,0,0.00
2013-6-30,90.2,69.9,54.7,68.0,59.7,53.0,97,73,45,29.81,29.72,5,0,0,0.00
2013-7-1,88.8,68.7,55.1,65.0,58.6,54.0,97,73,43,29.81,29.76,5,0,0,0.00
2013-7-2,81.5,69.8,58.9,62.0,57.8,55.0,88,68,48,29.88,29.79,9,1,0,0.00
2013-7-3,89.2,69.5,56.0,66.0,58.5,54.0,95,71,39,29.87,29.73,4,0,0,0.00
2013-7-4,81.6,70.2,60.1,64.0,58.9,55.0,87,69,48,29.75,29.63,5,0,0,0.00
2013-7-5,71.3,61.4,51.3,58.0,53.9,50.0,96,78,59,29.73,29.67,5,1,0,0.00
2013-7-6,66.5,55.9,52.6,56.0,52.1,50.0,93,87,67,29.80,29.72,4,1,0,0.00
2013-7-7,73.1,60.2,53.3,58.0,53.9,51.0,93,81,57,29.84,29.76,4,1,0,0.00
2013-7-8,76.6,60.1,53.5,59.0,54.2,52.0,94,82,54,29.95,29.84,8,1,0,0.00
2013-7-9,83.8,64.6,49.0,64.0,55.6,48.0,97,76,45,30.01,29.89,4,0,0,0.00
2013-7-10,72.4,59.4,48.9,58.0,53.3,47.0,97,82,59,29.95,29.86,7,1,0,0.00
2013-7-11,69.0,57.1,51.4,58.0,52.4,49.0,94,85,63,29.92,29.85,5,1,0,0.00
2013-7-12,70.6,57.4,50.1,58.0,52.7,48.0,93,85,63,29.93,29.85,5,1,0,0.00
2013-7-13,74.2,60.1,48.4,58.0,53.3,47.0,97,80,53,29.95,29.87,4,1,0,0.00
2013-7-14,72.8,58.6,47.4,58.0,52.7,46.0,97,82,59,29.98,29.87,4,1,0,0.00
2013-7-15,68.7,57.5,51.0,56.0,52.6,49.0,94,84,63,29.90,29.81,5,1,0,0.00
2013-7-16,61.7,57.8,53.9,58.0,54.5,52.0,93,89,81,30.00,29.84,5,0,0,0.01
2013-7-17,76.3,63.1,51.6,61.0,56.1,49.0,92,79,57,30.06,29.99,4,0,0,0.00
2013-7-18,75.8,60.6,50.5,60.0,54.2,49.0,96,81,56,30.03,29.91,4,1,0,0.00
2013-7-19,77.1,61.1,51.4,61.0,54.9,50.0,96,82,55,29.92,29.80,5,0,0,0.00
2013-7-20,73.9,59.2,52.6,58.0,53.6,51.0,95,83,56,29.83,29.71,6,1,0,0.00
2013-7-21,76.4,61.8,52.4,59.0,54.3,51.0,95,78,52,29.85,29.74,5,1,0,0.00
2013-7-22,78.6,64.7,57.7,63.0,57.8,54.0,91,79,57,29.93,29.85,10,1,0,0.00
2013-7-23,73.4,63.7,55.5,62.0,57.3,53.0,92,80,65,29.97,29.90,4,0,0,0.00
2013-7-24,80.9,64.0,52.1,63.0,56.6,51.0,97,79,53,29.96,29.87,3,0,0,0.00
2013-7-25,62.2,54.9,53.1,56.0,52.8,52.0,95,92,81,29.96,29.90,2,0,0,0.00
2013-11-6,60.3,60.3,60.3,40.5,40.5,40.5,48,48,48,30.14,30.14,0,0,0,0.00
2013-11-7,59.5,53.4,49.2,47.7,46.4,46.0,89,78,65,30.06,30.04,0,0,2,0.00
2013-11-8,82.0,57.2,43.8,59.0,48.7,41.0,97,77,36,30.05,29.91,5,0,5,0.00
2013-11-9,79.3,55.4,40.7,52.0,46.4,39.0,97,77,36,30.02,29.94,6,0,7,0.00
2013-11-10,67.9,55.0,46.0,53.0,49.4,44.0,96,82,59,30.09,30.00,8,0,8,0.00
2013-11-11,71.4,54.7,43.7,56.0,49.1,42.0,97,83,54,30.14,30.05,3,0,4,0.01
2013-11-12,78.9,58.7,50.1,55.0,50.5,47.0,90,76,44,30.23,30.12,3,0,4,0.00
2013-11-13,80.6,58.3,47.1,59.0,51.3,46.0,97,80,42,30.21,30.07,2,0,6,0.00
2013-11-14,68.8,55.1,46.5,57.0,48.6,36.0,97,81,42,30.08,29.82,2,0,11,0.00
2013-11-15,70.7,55.2,43.1,48.0,42.6,38.0,91,66,38,29.83,29.69,3,0,9,0.00
2013-11-16,73.5,52.9,40.6,51.0,45.2,39.0,96,78,45,29.89,29.73,2,0,6,0.00
2013-11-17,66.9,50.0,40.6,56.0,44.9,39.0,97,84,55,30.06,29.89,3,0,7,0.01
2013-11-18,62.5,50.1,40.6,52.0,46.5,39.0,97,87,66,30.12,30.06,3,0,7,0.00
2013-11-19,56.4,54.3,52.6,56.0,52.8,49.0,97,94,86,30.07,29.90,3,0,8,1.32
2013-11-20,61.5,56.0,51.8,61.0,55.1,51.0,98,97,93,29.91,29.81,4,0,9,0.85
2013-11-21,67.2,55.6,49.4,55.0,39.8,25.0,98,62,26,29.97,29.86,5,1,12,0.00
2013-11-22,76.5,61.1,51.2,34.0,23.2,17.0,35,25,12,29.99,29.87,6,1,16,0.00
2013-11-23,71.9,54.7,42.3,40.0,35.3,28.0,89,52,24,30.07,29.92,4,0,7,0.00
2013-11-24,70.8,50.4,39.9,49.0,42.2,39.0,97,77,37,30.22,30.07,2,0,6,0.00
2013-11-25,70.0,50.3,39.1,50.0,43.4,38.0,97,80,45,30.30,30.22,2,0,7,0.00
2013-11-26,67.6,53.3,45.7,45.0,43.2,40.9,87,70,43,30.23,30.01,3,0,7,0.00
2013-11-27,68.8,55.1,48.7,48.0,45.0,42.0,83,70,46,30.01,29.82,8,0,9,0.00
2013-11-28,76.3,56.4,46.9,50.0,45.0,42.0,86,70,34,30.04,29.84,2,0,7,0.00
2013-11-29,75.5,53.8,43.2,53.0,45.1,41.0,96,76,40,30.18,30.04,1,0,5,0.00
2013-11-30,75.0,52.7,42.7,53.0,45.7,41.0,97,81,43,30.25,30.16,1,0,4,0.00
2013-12-1,77.5,54.0,42.5,55.0,46.7,41.0,97,80,39,30.31,30.19,4,0,5,0.00
2013-12-2,68.6,53.3,41.8,55.0,48.6,41.0,97,85,62,30.19,29.93,3,0,5,0.00
2013-12-3,60.8,50.9,40.9,53.0,37.4,30.0,92,61,45,29.92,29.81,3,0,9,0.00
2013-12-4,59.5,41.5,30.8,35.0,29.1,24.0,82,65,31,30.06,29.92,3,0,7,0.00
2013-12-5,58.4,38.2,27.8,32.0,26.2,22.0,86,66,27,30.14,30.05,3,0,8,0.00
2013-12-6,54.0,41.6,29.6,49.0,37.0,27.0,95,85,51,30.17,29.89,13,1,19,0.86
2013-12-7,55.8,43.1,32.0,44.0,33.2,28.0,94,71,41,30.23,29.89,7,1,11,0.01
2013-12-8,51.4,36.5,27.9,34.0,28.2,25.0,95,75,38,30.30,30.20,4,0,8,0.00
2013-12-9,54.4,38.0,26.9,29.0,25.8,23.0,91,66,32,30.39,30.29,3,0,11,0.00
2013-12-10,59.5,43.2,35.0,33.0,29.8,28.0,77,62,34,30.38,30.18,4,0,8,0.00
2013-12-11,61.4,45.7,33.0,35.0,32.0,29.0,86,61,32,30.23,30.16,3,0,10,0.00
2013-12-12,67.2,48.6,37.7,40.0,35.7,33.0,88,64,32,30.24,30.14,4,0,8,0.00
2013-12-13,68.0,45.5,34.9,47.0,39.2,34.0,97,81,40,30.31,30.20,4,0,6,0.00
2013-12-14,67.5,47.9,36.1,44.0,38.4,35.0,97,73,37,30.37,30.28,5,0,9,0.00
2013-12-15,69.9,53.1,44.2,43.0,38.8,36.0,75,60,33,30.34,30.21,4,0,12,0.00
2013-12-16,74.9,58.2,49.4,41.0,37.5,34.0,65,48,27,30.21,30.09,3,1,9,0.00
2013-12-17,72.1,57.5,47.6,44.0,39.3,36.0,71,52,35,30.14,30.00,4,0,8,0.00
2013-12-18,66.1,50.5,44.1,49.0,42.8,37.0,95,76,51,30.00,29.72,2,0,7,0.00
2013-12-19,69.7,52.8,39.4,42.0,36.0,25.0,83,55,32,29.91,29.69,6,0,12,0.00
2013-12-20,68.8,47.3,36.1,42.0,32.2,24.0,77,59,28,29.99,29.90,2,0,5,0.00
2013-12-21,71.7,50.7,41.1,54.0,44.5,35.0,96,81,52,30.05,29.93,3,0,4,0.00
2013-12-22,71.5,51.5,41.7,45.0,41.4,40.0,100,73,34,30.25,30.06,5,0,9,0.00
2013-12-23,71.6,52.7,40.6,46.0,41.4,38.0,91,69,35,30.36,30.25,4,0,10,0.00
2013-12-24,76.1,53.7,41.9,50.0,43.2,39.0,92,71,35,30.31,30.16,2,0,7,0.00
2013-12-25,71.2,54.7,42.0,45.0,41.0,38.0,89,63,34,30.27,30.16,5,0,10,0.00
2013-12-26,74.1,57.3,47.6,43.0,38.3,33.0,71,52,29,30.22,30.14,3,0,8,0.00
2013-12-27,65.5,52.6,42.4,45.0,39.6,34.0,81,63,44,30.20,30.09,2,0,6,0.00
2013-12-28,72.9,49.7,38.3,46.0,38.6,35.0,90,70,32,30.12,30.00,4,0,5,0.00
2013-12-29,70.8,55.4,42.8,36.0,31.3,25.0,73,42,24,30.15,30.06,5,0,6,0.00
2013-12-30,70.3,52.8,39.4,46.0,40.0,36.0,86,64,37,30.22,30.14,3,0,5,0.00
2013-12-31,69.7,48.5,37.7,46.0,37.9,34.0,94,71,30,30.24,30.13,2,0,5,0.00
2014-1-1,71.5,49.4,36.6,49.0,38.8,34.0,93,70,37,30.19,30.09,3,0,4,0.00
2014-1-2,72.7,53.8,41.3,42.0,38.2,35.0,81,59,27,30.16,30.02,3,0,9,0.00